首页
METAR-TAF:

METAR-TAF

机场 :

花卷機場

花卷, 日本

纬度: 39-26N, 经度: 141-08E, 海拔: 90米

当前天气观测

该预报发布于32分钟前的10:00 UTC
风速1节,风向多变
温度 24°C
湿度 94%
气压 1010 hPa
能见度10公里或以上
少量云层高于1000英尺

METAR: RJSI 201000Z VRB01KT 9999 FEW010 24/23 Q1010

时间: 19:32 (10:32 UTC)

预报

该预报发布于5小时和27分钟前的05:05 UTC
预报有效从20日的 06点(UTC)到 21日的 12点(UTC)
风速6节,风向西
能见度10公里或以上
少量云层高于2000英尺
散云层高于5000英尺
成为
从 20日的 12点(UTC)到 20日的 14点(UTC)
风速4节,风向北转东北
成为
从 20日的 21点(UTC)到 21日的 00点(UTC)
风速5节,风向

TAF: RJSI 200505Z 2006/2112 27006KT 9999 FEW020 SCT050 BECMG 2012/2014 02004KT BECMG 2021/2100 18005KT

超过4000个机场的气象观测和天气预报(METAR&TAF报告)。

可查询的气象台以黄色和红色小点在地图上表示。

将鼠标移到小点上方,可查看气象台名称。

然后点击查看天气观测和预报。

如需切换地图:点击带黑十字的绿色按钮放大地图;点击带横线的绿色按钮缩小地图;或者点击绿色箭头查看邻近地区的地图。


METAR-TAF: